sensor_id;sensor_type;location;lat;lon;timestamp;P1;durP1;ratioP1;P2;durP2;ratioP2
23634;SDS011;11994;51.038;16.974;2022-12-18T00:01:14;64.75;;;32.00;;
23634;SDS011;11994;51.038;16.974;2022-12-18T00:03:46;58.00;;;30.72;;
23634;SDS011;11994;51.038;16.974;2022-12-18T00:06:13;56.13;;;29.48;;
23634;SDS011;11994;51.038;16.974;2022-12-18T00:08:41;59.50;;;31.62;;
23634;SDS011;11994;51.038;16.974;2022-12-18T00:11:10;59.95;;;31.65;;
23634;SDS011;11994;51.038;16.974;2022-12-18T00:13:39;57.00;;;29.45;;
23634;SDS011;11994;51.038;16.974;2022-12-18T00:16:07;52.95;;;28.73;;
23634;SDS011;11994;51.038;16.974;2022-12-18T00:18:36;60.80;;;31.27;;
23634;SDS011;11994;51.038;16.974;2022-12-18T00:21:04;58.75;;;30.43;;
23634;SDS011;11994;51.038;16.974;2022-12-18T00:23:33;54.67;;;27.45;;
23634;SDS011;11994;51.038;16.974;2022-12-18T00:26:01;55.95;;;28.65;;
23634;SDS011;11994;51.038;16.974;2022-12-18T00:28:29;45.33;;;25.57;;
23634;SDS011;11994;51.038;16.974;2022-12-18T00:31:04;49.50;;;25.85;;
23634;SDS011;11994;51.038;16.974;2022-12-18T00:33:29;46.33;;;25.20;;
23634;SDS011;11994;51.038;16.974;2022-12-18T00:36:00;50.08;;;27.32;;
23634;SDS011;11994;51.038;16.974;2022-12-18T00:38:32;51.58;;;26.57;;
23634;SDS011;11994;51.038;16.974;2022-12-18T00:40:59;46.08;;;24.18;;
23634;SDS011;11994;51.038;16.974;2022-12-18T00:43:25;50.50;;;25.15;;
23634;SDS011;11994;51.038;16.974;2022-12-18T00:45:52;46.92;;;24.43;;
23634;SDS011;11994;51.038;16.974;2022-12-18T00:48:18;41.70;;;22.90;;
23634;SDS011;11994;51.038;16.974;2022-12-18T00:50:44;40.70;;;20.20;;
23634;SDS011;11994;51.038;16.974;2022-12-18T00:53:12;41.02;;;20.02;;
23634;SDS011;11994;51.038;16.974;2022-12-18T00:55:41;43.02;;;22.60;;
23634;SDS011;11994;51.038;16.974;2022-12-18T00:58:08;42.90;;;22.32;;
23634;SDS011;11994;51.038;16.974;2022-12-18T01:00:36;46.42;;;23.70;;
23634;SDS011;11994;51.038;16.974;2022-12-18T01:03:03;47.70;;;24.07;;
23634;SDS011;11994;51.038;16.974;2022-12-18T01:05:30;41.10;;;22.48;;
23634;SDS011;11994;51.038;16.974;2022-12-18T01:07:57;43.95;;;23.12;;
23634;SDS011;11994;51.038;16.974;2022-12-18T01:10:23;44.40;;;23.45;;
23634;SDS011;11994;51.038;16.974;2022-12-18T01:12:50;43.65;;;24.20;;
23634;SDS011;11994;51.038;16.974;2022-12-18T01:15:17;45.78;;;23.38;;
23634;SDS011;11994;51.038;16.974;2022-12-18T01:17:44;43.55;;;23.07;;
23634;SDS011;11994;51.038;16.974;2022-12-18T01:20:11;41.42;;;20.97;;
23634;SDS011;11994;51.038;16.974;2022-12-18T01:22:38;39.23;;;19.62;;
23634;SDS011;11994;51.038;16.974;2022-12-18T01:25:04;36.60;;;19.73;;
23634;SDS011;11994;51.038;16.974;2022-12-18T01:27:32;37.42;;;19.30;;
23634;SDS011;11994;51.038;16.974;2022-12-18T01:29:59;36.53;;;20.05;;
23634;SDS011;11994;51.038;16.974;2022-12-18T01:32:25;37.08;;;20.48;;
23634;SDS011;11994;51.038;16.974;2022-12-18T01:34:51;39.23;;;19.57;;
23634;SDS011;11994;51.038;16.974;2022-12-18T01:37:17;39.08;;;20.27;;
23634;SDS011;11994;51.038;16.974;2022-12-18T01:39:43;40.52;;;20.10;;
23634;SDS011;11994;51.038;16.974;2022-12-18T01:42:15;44.93;;;22.90;;
23634;SDS011;11994;51.038;16.974;2022-12-18T01:44:59;40.53;;;19.93;;
23634;SDS011;11994;51.038;16.974;2022-12-18T01:47:39;34.65;;;19.60;;
23634;SDS011;11994;51.038;16.974;2022-12-18T01:50:16;42.13;;;20.45;;
23634;SDS011;11994;51.038;16.974;2022-12-18T01:52:42;35.75;;;19.77;;
23634;SDS011;11994;51.038;16.974;2022-12-18T01:55:16;38.85;;;20.02;;
23634;SDS011;11994;51.038;16.974;2022-12-18T01:57:46;38.70;;;20.05;;
23634;SDS011;11994;51.038;16.974;2022-12-18T02:00:15;37.28;;;20.52;;
23634;SDS011;11994;51.038;16.974;2022-12-18T02:02:45;38.95;;;20.12;;
23634;SDS011;11994;51.038;16.974;2022-12-18T02:05:13;36.95;;;19.32;;
23634;SDS011;11994;51.038;16.974;2022-12-18T02:08:03;38.33;;;20.40;;
23634;SDS011;11994;51.038;16.974;2022-12-18T02:16:52;42.13;;;22.22;;
23634;SDS011;11994;51.038;16.974;2022-12-18T02:19:35;39.73;;;20.62;;
23634;SDS011;11994;51.038;16.974;2022-12-18T02:28:02;39.92;;;20.80;;
23634;SDS011;11994;51.038;16.974;2022-12-18T02:32:59;38.40;;;20.43;;
23634;SDS011;11994;51.038;16.974;2022-12-18T02:35:30;38.02;;;19.92;;
23634;SDS011;11994;51.038;16.974;2022-12-18T02:37:58;35.13;;;20.15;;
23634;SDS011;11994;51.038;16.974;2022-12-18T02:40:26;36.17;;;19.35;;
23634;SDS011;11994;51.038;16.974;2022-12-18T02:42:54;38.35;;;19.73;;
23634;SDS011;11994;51.038;16.974;2022-12-18T02:45:20;38.98;;;19.57;;
23634;SDS011;11994;51.038;16.974;2022-12-18T02:47:47;36.65;;;19.45;;
23634;SDS011;11994;51.038;16.974;2022-12-18T02:59:02;34.70;;;18.73;;
23634;SDS011;11994;51.038;16.974;2022-12-18T03:04:40;38.33;;;20.08;;
23634;SDS011;11994;51.038;16.974;2022-12-18T03:06:59;152.40;;;50.23;;
23634;SDS011;11994;51.038;16.974;2022-12-18T03:09:29;59.20;;;25.48;;
23634;SDS011;11994;51.038;16.974;2022-12-18T03:12:20;48.37;;;22.97;;
23634;SDS011;11994;51.038;16.974;2022-12-18T03:18:04;44.88;;;21.77;;
23634;SDS011;11994;51.038;16.974;2022-12-18T03:20:36;41.85;;;22.48;;
23634;SDS011;11994;51.038;16.974;2022-12-18T03:23:07;42.62;;;21.85;;
23634;SDS011;11994;51.038;16.974;2022-12-18T03:25:38;38.67;;;21.40;;
23634;SDS011;11994;51.038;16.974;2022-12-18T03:28:07;43.85;;;21.93;;
23634;SDS011;11994;51.038;16.974;2022-12-18T03:30:38;42.33;;;22.35;;
23634;SDS011;11994;51.038;16.974;2022-12-18T03:33:15;39.20;;;21.70;;
23634;SDS011;11994;51.038;16.974;2022-12-18T03:35:44;41.85;;;21.85;;
23634;SDS011;11994;51.038;16.974;2022-12-18T03:38:11;39.30;;;20.80;;
23634;SDS011;11994;51.038;16.974;2022-12-18T03:43:40;39.58;;;22.05;;
23634;SDS011;11994;51.038;16.974;2022-12-18T03:46:15;48.15;;;22.45;;
23634;SDS011;11994;51.038;16.974;2022-12-18T03:51:51;44.20;;;22.22;;
23634;SDS011;11994;51.038;16.974;2022-12-18T03:54:27;44.08;;;22.45;;
23634;SDS011;11994;51.038;16.974;2022-12-18T03:57:11;43.50;;;22.82;;
23634;SDS011;11994;51.038;16.974;2022-12-18T03:59:36;42.60;;;22.35;;
23634;SDS011;11994;51.038;16.974;2022-12-18T04:02:04;43.98;;;21.80;;
23634;SDS011;11994;51.038;16.974;2022-12-18T04:04:34;39.03;;;21.30;;
23634;SDS011;11994;51.038;16.974;2022-12-18T04:07:03;40.92;;;22.00;;
23634;SDS011;11994;51.038;16.974;2022-12-18T04:09:30;39.53;;;21.60;;
23634;SDS011;11994;51.038;16.974;2022-12-18T04:11:59;42.93;;;22.37;;
23634;SDS011;11994;51.038;16.974;2022-12-18T04:14:25;42.95;;;23.10;;
23634;SDS011;11994;51.038;16.974;2022-12-18T04:16:51;39.65;;;21.25;;
23634;SDS011;11994;51.038;16.974;2022-12-18T04:19:17;44.63;;;22.40;;
23634;SDS011;11994;51.038;16.974;2022-12-18T04:21:44;42.65;;;21.65;;
23634;SDS011;11994;51.038;16.974;2022-12-18T04:24:10;39.63;;;20.48;;
23634;SDS011;11994;51.038;16.974;2022-12-18T04:26:36;38.00;;;21.10;;
23634;SDS011;11994;51.038;16.974;2022-12-18T04:29:03;43.13;;;24.35;;
23634;SDS011;11994;51.038;16.974;2022-12-18T04:31:29;40.80;;;23.30;;
23634;SDS011;11994;51.038;16.974;2022-12-18T04:33:55;44.20;;;23.07;;
23634;SDS011;11994;51.038;16.974;2022-12-18T04:36:21;41.83;;;22.53;;
23634;SDS011;11994;51.038;16.974;2022-12-18T04:38:48;35.98;;;19.90;;
23634;SDS011;11994;51.038;16.974;2022-12-18T04:41:14;37.28;;;20.80;;
23634;SDS011;11994;51.038;16.974;2022-12-18T04:43:40;37.08;;;21.60;;
23634;SDS011;11994;51.038;16.974;2022-12-18T04:46:06;38.63;;;21.17;;
23634;SDS011;11994;51.038;16.974;2022-12-18T04:48:33;38.63;;;22.15;;
23634;SDS011;11994;51.038;16.974;2022-12-18T04:51:00;34.30;;;20.23;;
23634;SDS011;11994;51.038;16.974;2022-12-18T04:53:26;35.98;;;21.17;;
23634;SDS011;11994;51.038;16.974;2022-12-18T04:56:15;43.10;;;23.02;;
23634;SDS011;11994;51.038;16.974;2022-12-18T04:58:41;40.63;;;23.83;;
23634;SDS011;11994;51.038;16.974;2022-12-18T05:01:09;41.00;;;23.40;;
23634;SDS011;11994;51.038;16.974;2022-12-18T05:03:38;35.38;;;22.77;;
23634;SDS011;11994;51.038;16.974;2022-12-18T05:06:05;40.20;;;23.05;;
23634;SDS011;11994;51.038;16.974;2022-12-18T05:08:32;33.20;;;20.75;;
23634;SDS011;11994;51.038;16.974;2022-12-18T05:11:08;39.98;;;20.88;;
23634;SDS011;11994;51.038;16.974;2022-12-18T05:13:37;37.33;;;20.95;;
23634;SDS011;11994;51.038;16.974;2022-12-18T05:16:04;38.75;;;22.50;;
23634;SDS011;11994;51.038;16.974;2022-12-18T05:18:31;35.45;;;22.00;;
23634;SDS011;11994;51.038;16.974;2022-12-18T05:20:57;38.20;;;22.07;;
23634;SDS011;11994;51.038;16.974;2022-12-18T05:23:24;41.42;;;23.70;;
23634;SDS011;11994;51.038;16.974;2022-12-18T05:26:16;43.15;;;24.18;;
23634;SDS011;11994;51.038;16.974;2022-12-18T05:28:27;40.75;;;23.90;;
23634;SDS011;11994;51.038;16.974;2022-12-18T05:30:56;46.02;;;26.05;;
23634;SDS011;11994;51.038;16.974;2022-12-18T05:33:26;43.05;;;26.23;;
23634;SDS011;11994;51.038;16.974;2022-12-18T05:36:00;43.50;;;25.40;;
23634;SDS011;11994;51.038;16.974;2022-12-18T05:38:26;46.10;;;25.57;;
23634;SDS011;11994;51.038;16.974;2022-12-18T05:40:53;48.42;;;25.77;;
23634;SDS011;11994;51.038;16.974;2022-12-18T05:43:20;44.48;;;27.48;;
23634;SDS011;11994;51.038;16.974;2022-12-18T05:45:47;49.77;;;29.45;;
23634;SDS011;11994;51.038;16.974;2022-12-18T05:48:14;50.67;;;29.42;;
23634;SDS011;11994;51.038;16.974;2022-12-18T05:50:41;52.27;;;28.95;;
23634;SDS011;11994;51.038;16.974;2022-12-18T05:53:10;51.02;;;29.85;;
23634;SDS011;11994;51.038;16.974;2022-12-18T05:55:38;50.17;;;28.57;;
23634;SDS011;11994;51.038;16.974;2022-12-18T05:58:07;51.05;;;29.87;;
23634;SDS011;11994;51.038;16.974;2022-12-18T06:00:35;55.55;;;30.95;;
23634;SDS011;11994;51.038;16.974;2022-12-18T06:03:05;53.15;;;30.02;;
23634;SDS011;11994;51.038;16.974;2022-12-18T06:05:39;58.05;;;31.93;;
23634;SDS011;11994;51.038;16.974;2022-12-18T06:08:09;52.85;;;30.10;;
23634;SDS011;11994;51.038;16.974;2022-12-18T06:10:35;53.78;;;29.35;;
23634;SDS011;11994;51.038;16.974;2022-12-18T06:13:02;49.10;;;28.35;;
23634;SDS011;11994;51.038;16.974;2022-12-18T06:15:29;50.50;;;29.72;;
23634;SDS011;11994;51.038;16.974;2022-12-18T06:17:55;51.48;;;29.57;;
23634;SDS011;11994;51.038;16.974;2022-12-18T06:20:21;52.03;;;27.85;;
23634;SDS011;11994;51.038;16.974;2022-12-18T06:22:48;58.55;;;32.48;;
23634;SDS011;11994;51.038;16.974;2022-12-18T06:25:14;59.00;;;33.80;;
23634;SDS011;11994;51.038;16.974;2022-12-18T06:27:40;56.40;;;32.60;;
23634;SDS011;11994;51.038;16.974;2022-12-18T06:30:08;52.78;;;30.60;;
23634;SDS011;11994;51.038;16.974;2022-12-18T06:32:35;53.15;;;29.05;;
23634;SDS011;11994;51.038;16.974;2022-12-18T06:35:01;52.53;;;29.77;;
23634;SDS011;11994;51.038;16.974;2022-12-18T06:37:30;48.75;;;28.47;;
23634;SDS011;11994;51.038;16.974;2022-12-18T06:39:56;45.50;;;26.20;;
23634;SDS011;11994;51.038;16.974;2022-12-18T06:42:23;41.88;;;25.48;;
23634;SDS011;11994;51.038;16.974;2022-12-18T06:44:49;44.53;;;24.80;;
23634;SDS011;11994;51.038;16.974;2022-12-18T06:47:15;42.55;;;24.63;;
23634;SDS011;11994;51.038;16.974;2022-12-18T06:49:42;39.38;;;23.47;;
23634;SDS011;11994;51.038;16.974;2022-12-18T06:52:08;38.78;;;24.00;;
23634;SDS011;11994;51.038;16.974;2022-12-18T06:54:34;40.28;;;24.27;;
23634;SDS011;11994;51.038;16.974;2022-12-18T06:57:01;36.60;;;21.42;;
23634;SDS011;11994;51.038;16.974;2022-12-18T06:59:27;46.80;;;28.80;;
23634;SDS011;11994;51.038;16.974;2022-12-18T07:01:53;39.90;;;24.98;;
23634;SDS011;11994;51.038;16.974;2022-12-18T07:04:19;37.40;;;22.80;;
23634;SDS011;11994;51.038;16.974;2022-12-18T07:06:45;42.53;;;26.23;;
23634;SDS011;11994;51.038;16.974;2022-12-18T07:09:11;38.78;;;23.20;;
23634;SDS011;11994;51.038;16.974;2022-12-18T07:11:38;39.53;;;22.50;;
23634;SDS011;11994;51.038;16.974;2022-12-18T07:14:04;40.10;;;22.95;;
23634;SDS011;11994;51.038;16.974;2022-12-18T07:16:30;40.23;;;23.12;;
23634;SDS011;11994;51.038;16.974;2022-12-18T07:18:56;38.15;;;22.15;;
23634;SDS011;11994;51.038;16.974;2022-12-18T07:21:22;37.73;;;22.13;;
23634;SDS011;11994;51.038;16.974;2022-12-18T07:23:50;40.15;;;22.58;;
23634;SDS011;11994;51.038;16.974;2022-12-18T07:26:17;37.33;;;22.32;;
23634;SDS011;11994;51.038;16.974;2022-12-18T07:28:45;35.35;;;22.32;;
23634;SDS011;11994;51.038;16.974;2022-12-18T07:31:17;36.73;;;22.58;;
23634;SDS011;11994;51.038;16.974;2022-12-18T07:33:43;40.70;;;22.58;;
23634;SDS011;11994;51.038;16.974;2022-12-18T07:36:10;38.53;;;23.32;;
23634;SDS011;11994;51.038;16.974;2022-12-18T07:38:37;44.03;;;26.20;;
23634;SDS011;11994;51.038;16.974;2022-12-18T07:41:04;38.98;;;23.55;;
23634;SDS011;11994;51.038;16.974;2022-12-18T07:43:32;41.05;;;24.07;;
23634;SDS011;11994;51.038;16.974;2022-12-18T07:46:00;42.70;;;23.83;;
23634;SDS011;11994;51.038;16.974;2022-12-18T07:48:26;41.20;;;25.37;;
23634;SDS011;11994;51.038;16.974;2022-12-18T07:50:53;46.18;;;26.93;;
23634;SDS011;11994;51.038;16.974;2022-12-18T07:53:26;39.85;;;24.95;;
23634;SDS011;11994;51.038;16.974;2022-12-18T07:55:59;46.13;;;26.07;;
23634;SDS011;11994;51.038;16.974;2022-12-18T07:58:28;40.70;;;25.55;;
23634;SDS011;11994;51.038;16.974;2022-12-18T08:01:02;40.75;;;25.20;;
23634;SDS011;11994;51.038;16.974;2022-12-18T08:03:31;41.28;;;23.70;;
23634;SDS011;11994;51.038;16.974;2022-12-18T08:06:01;39.90;;;24.02;;
23634;SDS011;11994;51.038;16.974;2022-12-18T08:08:30;43.87;;;24.50;;
23634;SDS011;11994;51.038;16.974;2022-12-18T08:10:56;41.23;;;24.57;;
23634;SDS011;11994;51.038;16.974;2022-12-18T08:13:23;44.67;;;23.98;;
23634;SDS011;11994;51.038;16.974;2022-12-18T08:16:00;46.40;;;26.75;;
23634;SDS011;11994;51.038;16.974;2022-12-18T08:18:29;41.50;;;25.30;;
23634;SDS011;11994;51.038;16.974;2022-12-18T08:21:02;43.65;;;25.52;;
23634;SDS011;11994;51.038;16.974;2022-12-18T08:23:37;44.75;;;26.75;;
23634;SDS011;11994;51.038;16.974;2022-12-18T08:26:05;47.35;;;29.15;;
23634;SDS011;11994;51.038;16.974;2022-12-18T08:28:31;44.95;;;26.82;;
23634;SDS011;11994;51.038;16.974;2022-12-18T08:30:58;42.45;;;25.75;;
23634;SDS011;11994;51.038;16.974;2022-12-18T08:33:24;41.55;;;25.90;;
23634;SDS011;11994;51.038;16.974;2022-12-18T08:35:51;42.65;;;25.05;;
23634;SDS011;11994;51.038;16.974;2022-12-18T08:38:17;49.13;;;28.25;;
23634;SDS011;11994;51.038;16.974;2022-12-18T08:40:44;44.27;;;29.00;;
23634;SDS011;11994;51.038;16.974;2022-12-18T08:43:10;40.17;;;24.05;;
23634;SDS011;11994;51.038;16.974;2022-12-18T08:45:55;44.95;;;25.27;;
23634;SDS011;11994;51.038;16.974;2022-12-18T08:48:21;47.38;;;27.82;;
23634;SDS011;11994;51.038;16.974;2022-12-18T08:50:56;43.52;;;25.15;;
23634;SDS011;11994;51.038;16.974;2022-12-18T08:53:24;43.83;;;26.73;;
23634;SDS011;11994;51.038;16.974;2022-12-18T08:55:51;47.33;;;28.38;;
23634;SDS011;11994;51.038;16.974;2022-12-18T08:58:17;45.43;;;28.25;;
23634;SDS011;11994;51.038;16.974;2022-12-18T09:00:44;44.10;;;26.40;;
23634;SDS011;11994;51.038;16.974;2022-12-18T09:03:11;42.73;;;25.27;;
23634;SDS011;11994;51.038;16.974;2022-12-18T09:05:48;46.37;;;27.30;;
23634;SDS011;11994;51.038;16.974;2022-12-18T09:08:12;41.15;;;25.15;;
23634;SDS011;11994;51.038;16.974;2022-12-18T09:10:41;42.20;;;25.07;;
23634;SDS011;11994;51.038;16.974;2022-12-18T09:13:10;43.90;;;24.82;;
23634;SDS011;11994;51.038;16.974;2022-12-18T09:15:43;44.33;;;25.25;;
23634;SDS011;11994;51.038;16.974;2022-12-18T09:18:13;44.70;;;24.82;;
23634;SDS011;11994;51.038;16.974;2022-12-18T09:20:41;42.45;;;25.02;;
23634;SDS011;11994;51.038;16.974;2022-12-18T09:23:07;44.88;;;25.50;;
23634;SDS011;11994;51.038;16.974;2022-12-18T09:25:34;46.02;;;26.40;;
23634;SDS011;11994;51.038;16.974;2022-12-18T09:28:01;53.08;;;27.98;;
23634;SDS011;11994;51.038;16.974;2022-12-18T09:30:31;54.27;;;29.63;;
23634;SDS011;11994;51.038;16.974;2022-12-18T09:33:00;49.88;;;27.85;;
23634;SDS011;11994;51.038;16.974;2022-12-18T09:35:26;47.05;;;27.27;;
23634;SDS011;11994;51.038;16.974;2022-12-18T09:37:53;50.73;;;27.15;;
23634;SDS011;11994;51.038;16.974;2022-12-18T09:40:20;46.58;;;26.65;;
23634;SDS011;11994;51.038;16.974;2022-12-18T09:42:51;48.50;;;27.37;;
23634;SDS011;11994;51.038;16.974;2022-12-18T09:45:23;47.73;;;27.52;;
23634;SDS011;11994;51.038;16.974;2022-12-18T09:47:49;45.65;;;26.50;;
23634;SDS011;11994;51.038;16.974;2022-12-18T09:52:56;47.43;;;27.20;;
23634;SDS011;11994;51.038;16.974;2022-12-18T09:58:20;51.08;;;28.15;;
23634;SDS011;11994;51.038;16.974;2022-12-18T10:00:57;51.85;;;26.93;;
23634;SDS011;11994;51.038;16.974;2022-12-18T10:03:23;49.35;;;27.07;;
23634;SDS011;11994;51.038;16.974;2022-12-18T10:17:45;50.50;;;27.30;;
23634;SDS011;11994;51.038;16.974;2022-12-18T10:20:48;53.52;;;29.55;;
23634;SDS011;11994;51.038;16.974;2022-12-18T10:23:33;48.63;;;25.27;;
23634;SDS011;11994;51.038;16.974;2022-12-18T10:26:22;50.48;;;28.20;;
23634;SDS011;11994;51.038;16.974;2022-12-18T10:28:50;51.80;;;29.60;;
23634;SDS011;11994;51.038;16.974;2022-12-18T10:31:19;51.53;;;26.77;;
23634;SDS011;11994;51.038;16.974;2022-12-18T10:33:48;51.18;;;29.05;;
23634;SDS011;11994;51.038;16.974;2022-12-18T10:36:15;54.48;;;29.52;;
23634;SDS011;11994;51.038;16.974;2022-12-18T10:38:41;53.55;;;28.15;;
23634;SDS011;11994;51.038;16.974;2022-12-18T10:41:23;52.62;;;28.77;;
23634;SDS011;11994;51.038;16.974;2022-12-18T10:43:51;53.50;;;29.35;;
23634;SDS011;11994;51.038;16.974;2022-12-18T10:46:37;56.90;;;29.60;;
23634;SDS011;11994;51.038;16.974;2022-12-18T10:49:04;52.15;;;28.62;;
23634;SDS011;11994;51.038;16.974;2022-12-18T10:51:31;59.20;;;31.93;;
23634;SDS011;11994;51.038;16.974;2022-12-18T10:54:01;57.17;;;30.77;;
23634;SDS011;11994;51.038;16.974;2022-12-18T10:56:47;57.33;;;30.48;;
23634;SDS011;11994;51.038;16.974;2022-12-18T10:59:14;52.25;;;29.23;;
23634;SDS011;11994;51.038;16.974;2022-12-18T11:01:50;53.83;;;30.12;;
23634;SDS011;11994;51.038;16.974;2022-12-18T11:04:26;56.98;;;33.28;;
23634;SDS011;11994;51.038;16.974;2022-12-18T11:09:34;58.68;;;30.55;;
23634;SDS011;11994;51.038;16.974;2022-12-18T11:12:17;54.55;;;26.23;;
23634;SDS011;11994;51.038;16.974;2022-12-18T11:14:53;51.18;;;28.00;;
23634;SDS011;11994;51.038;16.974;2022-12-18T11:17:32;56.63;;;32.20;;
23634;SDS011;11994;51.038;16.974;2022-12-18T11:20:04;53.42;;;26.90;;
23634;SDS011;11994;51.038;16.974;2022-12-18T11:22:35;50.17;;;26.90;;
23634;SDS011;11994;51.038;16.974;2022-12-18T11:25:18;48.68;;;26.45;;
23634;SDS011;11994;51.038;16.974;2022-12-18T11:27:54;39.35;;;22.90;;
23634;SDS011;11994;51.038;16.974;2022-12-18T11:30:28;41.13;;;23.02;;
23634;SDS011;11994;51.038;16.974;2022-12-18T11:35:49;37.35;;;21.55;;
23634;SDS011;11994;51.038;16.974;2022-12-18T11:38:29;34.78;;;18.75;;
23634;SDS011;11994;51.038;16.974;2022-12-18T11:41:00;39.78;;;22.75;;
23634;SDS011;11994;51.038;16.974;2022-12-18T11:43:49;44.23;;;23.52;;
23634;SDS011;11994;51.038;16.974;2022-12-18T11:46:36;38.98;;;22.80;;
23634;SDS011;11994;51.038;16.974;2022-12-18T11:49:28;44.23;;;23.87;;
23634;SDS011;11994;51.038;16.974;2022-12-18T11:54:32;43.87;;;24.00;;
23634;SDS011;11994;51.038;16.974;2022-12-18T11:56:59;41.28;;;24.00;;
23634;SDS011;11994;51.038;16.974;2022-12-18T11:59:51;43.52;;;24.98;;
23634;SDS011;11994;51.038;16.974;2022-12-18T12:14:08;56.33;;;27.70;;
23634;SDS011;11994;51.038;16.974;2022-12-18T12:16:52;57.30;;;29.15;;
23634;SDS011;11994;51.038;16.974;2022-12-18T12:19:40;56.25;;;29.37;;
23634;SDS011;11994;51.038;16.974;2022-12-18T12:27:55;62.98;;;32.33;;
23634;SDS011;11994;51.038;16.974;2022-12-18T12:36:17;65.62;;;34.45;;
23634;SDS011;11994;51.038;16.974;2022-12-18T12:39:01;51.28;;;24.92;;
23634;SDS011;11994;51.038;16.974;2022-12-18T12:41:31;55.43;;;28.95;;
23634;SDS011;11994;51.038;16.974;2022-12-18T12:44:25;56.65;;;31.27;;
23634;SDS011;11994;51.038;16.974;2022-12-18T12:46:55;62.85;;;32.80;;
23634;SDS011;11994;51.038;16.974;2022-12-18T12:49:25;58.68;;;29.00;;
23634;SDS011;11994;51.038;16.974;2022-12-18T12:51:59;60.33;;;31.23;;
23634;SDS011;11994;51.038;16.974;2022-12-18T12:54:25;60.65;;;31.00;;
23634;SDS011;11994;51.038;16.974;2022-12-18T13:02:54;62.98;;;29.55;;
23634;SDS011;11994;51.038;16.974;2022-12-18T13:05:34;64.35;;;29.70;;
23634;SDS011;11994;51.038;16.974;2022-12-18T13:08:06;65.67;;;36.20;;
23634;SDS011;11994;51.038;16.974;2022-12-18T13:10:39;63.50;;;33.02;;
23634;SDS011;11994;51.038;16.974;2022-12-18T13:15:38;68.15;;;34.55;;
23634;SDS011;11994;51.038;16.974;2022-12-18T13:20:49;70.45;;;35.43;;
23634;SDS011;11994;51.038;16.974;2022-12-18T13:25:57;64.17;;;33.58;;
23634;SDS011;11994;51.038;16.974;2022-12-18T13:34:19;56.25;;;28.47;;
23634;SDS011;11994;51.038;16.974;2022-12-18T13:36:49;64.25;;;32.88;;
23634;SDS011;11994;51.038;16.974;2022-12-18T13:41:54;63.80;;;33.13;;
23634;SDS011;11994;51.038;16.974;2022-12-18T13:44:53;43.52;;;19.70;;
23634;SDS011;11994;51.038;16.974;2022-12-18T13:47:25;67.65;;;35.10;;
23634;SDS011;11994;51.038;16.974;2022-12-18T13:50:03;56.53;;;30.90;;
23634;SDS011;11994;51.038;16.974;2022-12-18T13:52:37;58.23;;;31.82;;
23634;SDS011;11994;51.038;16.974;2022-12-18T13:55:06;66.70;;;34.55;;
23634;SDS011;11994;51.038;16.974;2022-12-18T13:57:37;60.43;;;34.13;;
23634;SDS011;11994;51.038;16.974;2022-12-18T14:01:04;77.12;;;41.65;;
23634;SDS011;11994;51.038;16.974;2022-12-18T14:02:54;66.50;;;33.27;;
23634;SDS011;11994;51.038;16.974;2022-12-18T14:05:25;72.95;;;36.20;;
23634;SDS011;11994;51.038;16.974;2022-12-18T14:07:55;70.92;;;36.90;;
23634;SDS011;11994;51.038;16.974;2022-12-18T14:10:30;71.00;;;36.40;;
23634;SDS011;11994;51.038;16.974;2022-12-18T14:12:57;65.75;;;37.23;;
23634;SDS011;11994;51.038;16.974;2022-12-18T14:15:43;64.10;;;34.18;;
23634;SDS011;11994;51.038;16.974;2022-12-18T14:20:53;66.45;;;36.95;;
23634;SDS011;11994;51.038;16.974;2022-12-18T14:29:00;66.85;;;35.08;;
23634;SDS011;11994;51.038;16.974;2022-12-18T14:31:44;59.55;;;30.95;;
23634;SDS011;11994;51.038;16.974;2022-12-18T14:34:17;64.30;;;33.98;;
23634;SDS011;11994;51.038;16.974;2022-12-18T14:36:53;65.57;;;31.82;;
23634;SDS011;11994;51.038;16.974;2022-12-18T14:39:20;62.53;;;32.83;;
23634;SDS011;11994;51.038;16.974;2022-12-18T14:41:48;68.83;;;35.73;;
23634;SDS011;11994;51.038;16.974;2022-12-18T14:44:15;70.80;;;36.42;;
23634;SDS011;11994;51.038;16.974;2022-12-18T14:46:42;68.90;;;36.55;;
23634;SDS011;11994;51.038;16.974;2022-12-18T14:52:06;69.60;;;37.17;;
23634;SDS011;11994;51.038;16.974;2022-12-18T14:54:39;69.67;;;34.03;;
23634;SDS011;11994;51.038;16.974;2022-12-18T14:57:11;65.57;;;33.42;;
23634;SDS011;11994;51.038;16.974;2022-12-18T14:59:48;62.45;;;34.13;;
23634;SDS011;11994;51.038;16.974;2022-12-18T15:02:23;64.17;;;34.88;;
23634;SDS011;11994;51.038;16.974;2022-12-18T15:05:02;64.53;;;34.60;;
23634;SDS011;11994;51.038;16.974;2022-12-18T15:07:41;73.47;;;34.95;;
23634;SDS011;11994;51.038;16.974;2022-12-18T15:10:12;72.20;;;36.63;;
23634;SDS011;11994;51.038;16.974;2022-12-18T15:12:45;66.92;;;36.40;;
23634;SDS011;11994;51.038;16.974;2022-12-18T15:20:41;69.20;;;37.60;;
23634;SDS011;11994;51.038;16.974;2022-12-18T15:23:22;60.95;;;31.93;;
23634;SDS011;11994;51.038;16.974;2022-12-18T15:26:06;59.08;;;26.82;;
23634;SDS011;11994;51.038;16.974;2022-12-18T15:33:45;62.67;;;32.17;;
23634;SDS011;11994;51.038;16.974;2022-12-18T15:36:19;64.15;;;32.60;;
23634;SDS011;11994;51.038;16.974;2022-12-18T15:38:48;63.10;;;32.33;;
23634;SDS011;11994;51.038;16.974;2022-12-18T15:41:21;59.60;;;31.35;;
23634;SDS011;11994;51.038;16.974;2022-12-18T15:43:48;63.87;;;32.83;;
23634;SDS011;11994;51.038;16.974;2022-12-18T15:48:48;60.33;;;31.02;;
23634;SDS011;11994;51.038;16.974;2022-12-18T15:51:20;59.95;;;31.07;;
23634;SDS011;11994;51.038;16.974;2022-12-18T15:53:58;57.88;;;30.57;;
23634;SDS011;11994;51.038;16.974;2022-12-18T15:56:26;64.82;;;33.65;;
23634;SDS011;11994;51.038;16.974;2022-12-18T15:59:12;59.88;;;32.42;;
23634;SDS011;11994;51.038;16.974;2022-12-18T16:01:46;67.17;;;33.18;;
23634;SDS011;11994;51.038;16.974;2022-12-18T16:04:14;67.37;;;33.53;;
23634;SDS011;11994;51.038;16.974;2022-12-18T16:06:44;71.02;;;37.45;;
23634;SDS011;11994;51.038;16.974;2022-12-18T16:09:10;75.17;;;39.38;;
23634;SDS011;11994;51.038;16.974;2022-12-18T16:11:37;65.08;;;35.92;;
23634;SDS011;11994;51.038;16.974;2022-12-18T16:14:20;67.27;;;35.95;;
23634;SDS011;11994;51.038;16.974;2022-12-18T16:16:53;72.20;;;37.80;;
23634;SDS011;11994;51.038;16.974;2022-12-18T16:19:22;69.47;;;38.48;;
23634;SDS011;11994;51.038;16.974;2022-12-18T16:21:49;78.72;;;39.33;;
23634;SDS011;11994;51.038;16.974;2022-12-18T16:24:18;74.62;;;37.50;;
23634;SDS011;11994;51.038;16.974;2022-12-18T16:26:49;72.75;;;38.98;;
23634;SDS011;11994;51.038;16.974;2022-12-18T16:29:17;71.28;;;37.25;;
23634;SDS011;11994;51.038;16.974;2022-12-18T16:31:46;74.58;;;39.83;;
23634;SDS011;11994;51.038;16.974;2022-12-18T16:36:47;77.50;;;40.35;;
23634;SDS011;11994;51.038;16.974;2022-12-18T16:39:15;78.67;;;40.73;;
23634;SDS011;11994;51.038;16.974;2022-12-18T16:41:42;85.45;;;44.40;;